Time;durP1;ratioP1;P1;durP2;ratioP2;P2;SDS_P1;SDS_P2;PMS_P1;PMS_P2;Temp;Humidity;BMP_temperature;BMP_pressure;BME280_temperature;BME280_humidity;BME280_pressure;Samples;Min_cycle;Max_cycle;Signal;HPM_P1;HPM_P2
2023/11/23 00:01:04;;;;;;;1.40;0.80;;;;;;;-5.07;100.00;100926.64;109049;1251;74265;-55
2023/11/23 00:03:31;;;;;;;1.00;0.60;;;;;;;-5.11;100.00;100921.60;109002;1251;66477;-55
2023/11/23 00:05:59;;;;;;;1.40;0.70;;;;;;;-5.19;100.00;100929.39;109068;1253;73474;-55
2023/11/23 00:08:26;;;;;;;2.20;0.70;;;;;;;-5.26;100.00;100930.90;109187;1253;60119;-55
2023/11/23 00:10:54;;;;;;;0.90;0.70;;;;;;;-5.30;100.00;100924.46;109036;1254;60201;-55
2023/11/23 00:13:21;;;;;;;0.80;0.60;;;;;;;-5.33;100.00;100921.73;107398;1253;73802;-55
2023/11/23 00:15:49;;;;;;;1.00;0.60;;;;;;;-5.35;100.00;100920.26;105474;1257;64685;-54
2023/11/23 00:18:16;;;;;;;1.60;0.70;;;;;;;-5.36;100.00;100921.48;105478;1256;72692;-55
2023/11/23 00:20:44;;;;;;;1.10;0.70;;;;;;;-5.36;100.00;100924.80;108461;1251;60443;-54
2023/11/23 00:23:11;;;;;;;1.40;0.80;;;;;;;-5.36;100.00;100923.56;109028;1251;60082;-55
2023/11/23 00:25:39;;;;;;;3.20;0.70;;;;;;;-5.37;100.00;100924.77;109005;1254;73209;-55
2023/11/23 00:28:07;;;;;;;1.90;0.70;;;;;;;-5.37;100.00;100921.80;109117;1253;65656;-54
2023/11/23 00:30:34;;;;;;;1.20;0.70;;;;;;;-5.39;100.00;100921.37;109143;1251;73815;-55
2023/11/23 00:33:01;;;;;;;2.40;0.60;;;;;;;-5.41;100.00;100917.98;109188;1253;58861;-56
2023/11/23 00:35:30;;;;;;;1.40;0.70;;;;;;;-5.42;100.00;100906.21;109128;1253;58889;-55
2023/11/23 00:37:58;;;;;;;1.60;1.30;;;;;;;-5.43;100.00;100900.57;106354;1256;73984;-54
2023/11/23 00:40:27;;;;;;;1.60;0.80;;;;;;;-5.45;100.00;100898.42;105834;1255;68012;-54
2023/11/23 00:42:54;;;;;;;1.70;0.70;;;;;;;-5.49;100.00;100889.73;105367;1258;72919;-53
2023/11/23 00:45:21;;;;;;;1.00;0.60;;;;;;;-5.50;100.00;100883.54;105326;1253;61764;-53
2023/11/23 00:47:49;;;;;;;1.60;0.70;;;;;;;-5.49;100.00;100877.98;105473;1256;60434;-54
2023/11/23 00:50:17;;;;;;;1.50;0.70;;;;;;;-5.47;100.00;100878.60;105437;1254;74870;-53
2023/11/23 00:52:45;;;;;;;0.90;0.60;;;;;;;-5.45;100.00;100872.01;105595;1254;67093;-54
2023/11/23 00:55:12;;;;;;;1.00;0.70;;;;;;;-5.43;100.00;100872.77;105695;1256;70333;-54
2023/11/23 00:57:40;;;;;;;3.10;0.60;;;;;;;-5.41;100.00;100869.69;105429;1255;60389;-54
2023/11/23 01:00:08;;;;;;;0.90;0.70;;;;;;;-5.38;100.00;100868.39;105654;1254;60421;-55
2023/11/23 01:02:36;;;;;;;1.50;0.70;;;;;;;-5.37;100.00;100864.08;108281;1254;72618;-54
2023/11/23 01:05:05;;;;;;;1.40;0.80;;;;;;;-5.36;100.00;100858.66;105555;1256;65905;-54
2023/11/23 01:07:34;;;;;;;2.40;0.90;;;;;;;-5.36;100.00;100859.89;105462;1253;72443;-54
2023/11/23 01:10:02;;;;;;;1.20;0.80;;;;;;;-5.36;100.00;100863.04;106112;1254;60453;-54
2023/11/23 01:12:30;;;;;;;1.10;0.80;;;;;;;-5.37;100.00;100860.90;105443;1254;63835;-54
2023/11/23 01:14:57;;;;;;;2.50;0.80;;;;;;;-5.39;100.00;100855.94;105526;1258;74364;-53
2023/11/23 01:17:25;;;;;;;1.00;0.80;;;;;;;-5.41;100.00;100853.60;105619;1252;65644;-54
2023/11/23 01:19:52;;;;;;;3.30;1.00;;;;;;;-5.42;100.00;100848.85;105538;1256;71914;-54
2023/11/23 01:22:20;;;;;;;2.20;0.90;;;;;;;-5.42;100.00;100840.41;105650;1253;61039;-52
2023/11/23 01:24:47;;;;;;;1.90;0.80;;;;;;;-5.44;100.00;100836.36;105555;1252;60655;-53
2023/11/23 01:27:15;;;;;;;1.40;0.60;;;;;;;-5.45;100.00;100830.40;106519;1251;73216;-55
2023/11/23 01:29:43;;;;;;;3.00;1.00;;;;;;;-5.43;100.00;100824.14;105481;1256;67626;-54
2023/11/23 01:32:10;;;;;;;1.40;0.90;;;;;;;-5.43;100.00;100818.02;106015;1256;72732;-53
2023/11/23 01:34:38;;;;;;;1.80;0.80;;;;;;;-5.42;100.00;100815.41;105557;1253;60467;-54
2023/11/23 01:37:05;;;;;;;2.80;1.00;;;;;;;-5.44;100.00;100803.82;105375;1256;60348;-54
2023/11/23 01:39:32;;;;;;;2.90;1.30;;;;;;;-5.45;100.00;100809.39;105592;1256;73900;-56
2023/11/23 01:42:00;;;;;;;1.90;1.20;;;;;;;-5.45;100.00;100809.74;105602;1253;65035;-54
2023/11/23 01:44:27;;;;;;;5.40;1.90;;;;;;;-5.47;100.00;100810.40;105555;1256;72728;-54
2023/11/23 01:46:55;;;;;;;2.60;1.50;;;;;;;-5.48;100.00;100815.08;105579;1258;60566;-54
2023/11/23 01:49:22;;;;;;;3.30;1.90;;;;;;;-5.49;100.00;100813.26;105579;1253;60406;-53
2023/11/23 01:51:50;;;;;;;3.10;1.70;;;;;;;-5.51;100.00;100815.83;105677;1257;73912;-54
2023/11/23 01:54:18;;;;;;;3.20;1.60;;;;;;;-5.51;100.00;100804.11;105531;1258;64666;-54
2023/11/23 01:56:47;;;;;;;2.00;1.00;;;;;;;-5.50;100.00;100801.86;105525;1253;72712;-54
2023/11/23 01:59:15;;;;;;;2.00;1.30;;;;;;;-5.47;100.00;100799.34;105193;1253;60589;-54
2023/11/23 02:01:42;;;;;;;4.00;1.30;;;;;;;-5.44;100.00;100796.29;105519;1254;60389;-54
2023/11/23 02:04:10;;;;;;;2.10;1.60;;;;;;;-5.40;100.00;100795.19;105572;1257;73649;-54
2023/11/23 02:06:38;;;;;;;2.70;1.80;;;;;;;-5.36;100.00;100795.88;105556;1252;65985;-53
2023/11/23 02:09:05;;;;;;;2.50;1.60;;;;;;;-5.31;100.00;100801.80;105572;1256;72764;-54
2023/11/23 02:11:33;;;;;;;4.70;2.30;;;;;;;-5.28;100.00;100793.66;105338;1256;60550;-54
2023/11/23 02:14:00;;;;;;;4.20;1.90;;;;;;;-5.28;100.00;100792.80;105383;1254;60498;-54
2023/11/23 02:16:27;;;;;;;2.50;1.80;;;;;;;-5.27;100.00;100778.11;105399;1253;73891;-53
2023/11/23 02:18:55;;;;;;;2.70;1.60;;;;;;;-5.26;100.00;100775.00;106220;1253;67432;-54
2023/11/23 02:21:22;;;;;;;4.00;2.20;;;;;;;-5.24;100.00;100784.16;105416;1257;74738;-53
2023/11/23 02:23:50;;;;;;;3.30;2.30;;;;;;;-5.24;100.00;100781.35;105488;1254;60482;-53
2023/11/23 02:26:18;;;;;;;4.50;2.10;;;;;;;-5.24;100.00;100777.14;105346;1258;60456;-54
2023/11/23 02:28:45;;;;;;;4.30;2.30;;;;;;;-5.22;100.00;100776.70;105404;1253;73515;-53
2023/11/23 02:31:12;;;;;;;3.40;2.20;;;;;;;-5.20;100.00;100773.98;105600;1257;66226;-54
2023/11/23 02:33:40;;;;;;;3.50;2.60;;;;;;;-5.19;100.00;100772.26;105225;1259;74101;-53
2023/11/23 02:36:08;;;;;;;4.20;2.40;;;;;;;-5.22;100.00;100772.67;105345;1256;60540;-54
2023/11/23 02:38:35;;;;;;;4.40;2.40;;;;;;;-5.28;100.00;100762.69;108283;1256;59684;-54
2023/11/23 02:41:03;;;;;;;2.70;2.50;;;;;;;-5.33;100.00;100762.88;105336;1259;72656;-54
2023/11/23 02:43:30;;;;;;;3.30;2.70;;;;;;;-5.35;100.00;100755.81;105458;1256;66098;-54
2023/11/23 02:45:57;;;;;;;4.50;2.80;;;;;;;-5.35;100.00;100763.35;105323;1267;72618;-54
2023/11/23 02:48:26;;;;;;;4.20;2.50;;;;;;;-5.34;100.00;100767.04;108992;1253;58913;-54
2023/11/23 02:50:53;;;;;;;8.20;2.20;;;;;;;-5.36;100.00;100757.91;109121;1251;59097;-55
2023/11/23 02:53:32;;;;;;;3.70;2.10;;;;;;;-5.35;100.00;100757.92;109120;1255;74748;-55
2023/11/23 02:56:00;;;;;;;5.30;2.00;;;;;;;-5.33;100.00;100755.36;109128;1256;66226;-54
2023/11/23 02:58:29;;;;;;;6.40;1.90;;;;;;;-5.28;100.00;100756.73;109105;1253;75141;-55
2023/11/23 03:00:57;;;;;;;3.20;1.60;;;;;;;-5.25;100.00;100753.16;108929;1251;62646;-55
2023/11/23 03:03:24;;;;;;;4.90;1.90;;;;;;;-5.22;100.00;100752.02;109183;1251;60036;-55
2023/11/23 03:05:53;;;;;;;2.60;1.80;;;;;;;-5.22;100.00;100753.27;109084;1251;74137;-55
2023/11/23 03:08:21;;;;;;;4.60;2.70;;;;;;;-5.21;100.00;100758.02;109059;1254;67327;-55
2023/11/23 03:10:49;;;;;;;5.30;2.80;;;;;;;-5.19;100.00;100758.77;109212;1252;72735;-55
2023/11/23 03:13:16;;;;;;;3.70;2.20;;;;;;;-5.16;100.00;100751.52;109033;1254;60786;-55
2023/11/23 03:15:44;;;;;;;5.70;2.90;;;;;;;-5.12;100.00;100747.79;109171;1251;58821;-55
2023/11/23 03:18:11;;;;;;;4.20;2.20;;;;;;;-5.08;100.00;100743.67;109081;1253;72734;-54
2023/11/23 03:20:41;;;;;;;3.80;2.60;;;;;;;-5.06;100.00;100739.23;109100;1251;66207;-54
2023/11/23 03:23:08;;;;;;;4.60;2.60;;;;;;;-5.03;100.00;100725.85;109159;1253;72760;-55
2023/11/23 03:25:36;;;;;;;4.00;2.30;;;;;;;-4.99;100.00;100723.84;109104;1253;58870;-55
2023/11/23 03:28:06;;;;;;;3.80;2.40;;;;;;;-4.96;100.00;100721.30;102936;1257;3353523;-54
2023/11/23 03:32:40;;;;;;;4.00;2.40;;;;;;;-4.90;100.00;100770.48;102675;1288;601141;-56
2023/11/23 03:35:09;;;;;;;5.80;2.30;;;;;;;-4.92;100.00;100764.98;104589;1266;60312;-54
2023/11/23 03:37:37;;;;;;;4.70;3.00;;;;;;;-4.91;100.00;100759.23;104871;1269;59239;-54
2023/11/23 03:40:07;;;;;;;7.20;4.40;;;;;;;-4.92;100.00;100746.27;104883;1271;71069;-54
2023/11/23 03:42:35;;;;;;;11.20;5.00;;;;;;;-4.92;100.00;100728.59;104792;1269;65819;-54
2023/11/23 03:45:03;;;;;;;5.80;3.20;;;;;;;-4.91;100.00;100722.85;104370;1271;73057;-54
2023/11/23 03:47:31;;;;;;;3.10;1.90;;;;;;;-4.91;100.00;100712.85;103373;1267;60960;-54
2023/11/23 03:49:59;;;;;;;1.80;1.00;;;;;;;-4.91;100.00;100699.54;104627;1269;59727;-53
2023/11/23 03:52:26;;;;;;;5.60;1.10;;;;;;;-4.90;100.00;100692.07;104627;1266;59253;-54
2023/11/23 03:54:54;;;;;;;4.10;0.80;;;;;;;-4.89;100.00;100688.78;104631;1267;65878;-54
2023/11/23 03:57:21;;;;;;;1.00;0.70;;;;;;;-4.86;100.00;100687.65;104618;1269;72724;-53
2023/11/23 03:59:49;;;;;;;5.00;0.80;;;;;;;-4.84;100.00;100683.14;104513;1269;59818;-53
2023/11/23 04:02:17;;;;;;;1.50;0.80;;;;;;;-4.82;100.00;100675.30;104525;1263;59999;-53
2023/11/23 04:04:44;;;;;;;1.40;0.80;;;;;;;-4.79;100.00;100668.21;105009;1269;73537;-53
2023/11/23 04:07:12;;;;;;;1.60;0.90;;;;;;;-4.77;100.00;100657.96;104907;1269;67570;-51
2023/11/23 04:09:40;;;;;;;2.60;1.20;;;;;;;-4.75;100.00;100653.10;105519;1269;71456;-54
2023/11/23 04:12:07;;;;;;;2.30;1.20;;;;;;;-4.74;100.00;100641.92;104632;1269;59746;-56
2023/11/23 04:14:35;;;;;;;2.60;1.40;;;;;;;-4.72;100.00;100641.27;104788;1264;59747;-54
2023/11/23 04:17:02;;;;;;;2.20;1.20;;;;;;;-4.73;100.00;100638.10;105307;1260;73523;-54
2023/11/23 04:19:30;;;;;;;2.20;1.00;;;;;;;-4.74;100.00;100633.00;105304;1262;65598;-53
2023/11/23 04:21:59;;;;;;;2.10;1.40;;;;;;;-4.74;100.00;100637.17;105091;1260;72695;-53
2023/11/23 04:24:26;;;;;;;2.00;1.20;;;;;;;-4.76;100.00;100633.09;105368;1263;59757;-54
2023/11/23 04:26:54;;;;;;;2.70;1.30;;;;;;;-4.77;100.00;100640.45;105169;1262;59633;-54
2023/11/23 04:29:21;;;;;;;3.20;1.30;;;;;;;-4.78;100.00;100639.02;105167;1260;70910;-54
2023/11/23 04:31:49;;;;;;;3.10;1.60;;;;;;;-4.80;100.00;100642.27;105187;1271;67432;-55
2023/11/23 04:34:16;;;;;;;1.90;1.40;;;;;;;-4.84;100.00;100634.13;105206;1270;70360;-54
2023/11/23 04:36:44;;;;;;;2.80;1.20;;;;;;;-4.87;100.00;100622.84;105077;1263;61226;-54
2023/11/23 04:39:12;;;;;;;4.40;1.30;;;;;;;-4.89;100.00;100609.98;105255;1261;59646;-54
2023/11/23 04:41:40;;;;;;;2.20;1.30;;;;;;;-4.90;100.00;100603.30;105741;1261;73110;-54
2023/11/23 04:44:07;;;;;;;2.00;1.10;;;;;;;-4.88;100.00;100605.46;105061;1262;64534;-54
2023/11/23 04:46:35;;;;;;;2.70;1.10;;;;;;;-4.87;100.00;100609.36;105078;1262;72722;-53
2023/11/23 04:49:02;;;;;;;4.50;1.20;;;;;;;-4.85;100.00;100603.81;104925;1259;59986;-54
2023/11/23 04:51:30;;;;;;;2.10;1.10;;;;;;;-4.83;100.00;100597.36;105051;1262;59975;-54
2023/11/23 04:53:57;;;;;;;1.40;0.90;;;;;;;-4.80;100.00;100609.02;105051;1263;72625;-54
2023/11/23 04:56:24;;;;;;;2.10;1.20;;;;;;;-4.78;100.00;100610.48;105327;1260;65664;-53
2023/11/23 04:58:52;;;;;;;1.90;1.10;;;;;;;-4.76;100.00;100609.81;105350;1259;71632;-53
2023/11/23 05:01:19;;;;;;;2.20;1.00;;;;;;;-4.74;100.00;100605.84;105323;1259;59721;-53
2023/11/23 05:03:47;;;;;;;2.50;1.00;;;;;;;-4.75;100.00;100598.65;106043;1256;59562;-53
2023/11/23 05:06:15;;;;;;;2.70;1.40;;;;;;;-4.75;100.00;100603.02;105412;1255;72294;-53
2023/11/23 05:08:42;;;;;;;3.50;1.00;;;;;;;-4.74;100.00;100597.27;105218;1260;65984;-53
2023/11/23 05:11:11;;;;;;;3.70;1.10;;;;;;;-4.75;100.00;100599.52;105331;1256;72642;-53
2023/11/23 05:13:39;;;;;;;2.70;1.30;;;;;;;-4.76;100.00;100590.02;105482;1256;59654;-53
2023/11/23 05:16:08;;;;;;;1.70;1.10;;;;;;;-4.77;100.00;100581.79;106154;1259;59682;-56
2023/11/23 05:18:35;;;;;;;4.70;1.10;;;;;;;-4.76;100.00;100576.89;105277;1260;73082;-53
2023/11/23 05:21:04;;;;;;;2.50;1.20;;;;;;;-4.75;100.00;100570.44;105403;1258;65815;-54
2023/11/23 05:23:31;;;;;;;5.70;1.20;;;;;;;-4.75;100.00;100559.05;105358;1258;74186;-55
2023/11/23 05:25:59;;;;;;;1.10;0.80;;;;;;;-4.75;100.00;100551.02;105081;1267;60613;-53
2023/11/23 05:28:27;;;;;;;5.40;1.00;;;;;;;-4.72;100.00;100544.09;105063;1254;59992;-55
2023/11/23 05:30:54;;;;;;;1.90;0.90;;;;;;;-4.68;100.00;100538.58;105289;1258;73048;-53
2023/11/23 05:33:22;;;;;;;1.70;1.00;;;;;;;-4.65;100.00;100540.92;105115;1254;66655;-53
2023/11/23 05:35:52;;;;;;;2.90;1.50;;;;;;;-4.62;100.00;100544.17;104964;1257;73289;-52
2023/11/23 05:38:19;;;;;;;4.50;1.50;;;;;;;-4.60;100.00;100540.55;104858;1257;59754;-53
2023/11/23 05:40:47;;;;;;;2.10;1.50;;;;;;;-4.59;100.00;100534.94;104806;1256;60002;-53
2023/11/23 05:43:15;;;;;;;2.40;1.50;;;;;;;-4.61;100.00;100531.61;105109;1256;72397;-53
2023/11/23 05:45:42;;;;;;;7.80;1.20;;;;;;;-4.61;100.00;100522.31;105332;1262;66583;-57
2023/11/23 05:48:10;;;;;;;2.30;1.20;;;;;;;-4.62;100.00;100521.77;109067;1254;73668;-54
2023/11/23 05:50:37;;;;;;;3.50;2.10;;;;;;;-4.61;100.00;100526.88;109027;1257;60032;-54
2023/11/23 05:53:05;;;;;;;3.40;1.80;;;;;;;-4.60;100.00;100516.21;106274;1257;59630;-53
2023/11/23 05:55:32;;;;;;;6.10;2.20;;;;;;;-4.59;100.00;100518.66;105336;1260;71866;-53
2023/11/23 05:58:00;;;;;;;2.00;1.40;;;;;;;-4.58;100.00;100516.92;105342;1258;67204;-53
2023/11/23 06:00:27;;;;;;;2.90;1.40;;;;;;;-4.58;100.00;100509.23;105433;1257;71138;-53
2023/11/23 06:02:55;;;;;;;2.50;1.30;;;;;;;-4.58;100.00;100511.51;109010;1255;62221;-55
2023/11/23 06:05:22;;;;;;;1.60;1.10;;;;;;;-4.58;100.00;100498.55;107433;1257;60736;-53
2023/11/23 06:07:51;;;;;;;1.70;0.90;;;;;;;-4.57;100.00;100486.12;105384;1260;70864;-54
2023/11/23 06:10:19;;;;;;;3.80;0.90;;;;;;;-4.58;100.00;100484.19;109107;1253;66802;-54
2023/11/23 06:12:46;;;;;;;1.90;0.90;;;;;;;-4.56;100.00;100481.08;108996;1254;72877;-54
2023/11/23 06:15:13;;;;;;;1.60;0.90;;;;;;;-4.54;100.00;100476.04;109155;1254;59490;-54
2023/11/23 06:17:41;;;;;;;1.50;0.80;;;;;;;-4.51;100.00;100472.09;109006;1253;59286;-54
2023/11/23 06:20:12;;;;;;;1.50;1.10;;;;;;;-4.48;100.00;100460.95;108969;1255;73073;-54
2023/11/23 06:22:39;;;;;;;2.10;1.00;;;;;;;-4.44;100.00;100455.63;109064;1254;66980;-54
2023/11/23 06:25:07;;;;;;;1.30;0.90;;;;;;;-4.41;100.00;100452.87;109016;1254;71492;-54
2023/11/23 06:27:34;;;;;;;1.60;1.00;;;;;;;-4.40;100.00;100447.30;106747;1256;60111;-53
2023/11/23 06:30:02;;;;;;;1.90;1.40;;;;;;;-4.39;100.00;100442.94;105380;1254;59997;-53
2023/11/23 06:32:33;;;;;;;2.50;1.00;;;;;;;-4.39;100.00;100439.61;105272;1258;73066;-53
2023/11/23 06:35:00;;;;;;;2.10;1.00;;;;;;;-4.39;100.00;100437.85;105268;1263;68734;-52
2023/11/23 06:37:28;;;;;;;1.80;1.00;;;;;;;-4.39;100.00;100436.09;106951;1256;71239;-53
2023/11/23 06:39:55;;;;;;;1.60;1.10;;;;;;;-4.40;100.00;100435.72;105360;1259;60083;-52
2023/11/23 06:42:24;;;;;;;2.10;1.30;;;;;;;-4.41;100.00;100444.64;106554;1259;59154;-53
2023/11/23 06:44:53;;;;;;;3.50;1.20;;;;;;;-4.43;100.00;100448.13;105306;1257;71822;-53
2023/11/23 06:47:21;;;;;;;1.70;1.20;;;;;;;-4.42;100.00;100443.05;105349;1259;66986;-53
2023/11/23 06:49:48;;;;;;;1.90;1.40;;;;;;;-4.40;100.00;100440.11;105319;1259;71066;-55
2023/11/23 06:52:16;;;;;;;3.40;1.10;;;;;;;-4.37;100.00;100442.65;105222;1261;61970;-53
2023/11/23 06:54:43;;;;;;;2.90;1.90;;;;;;;-4.34;100.00;100442.52;105816;1255;60339;-53
2023/11/23 06:57:11;;;;;;;4.90;1.80;;;;;;;-4.32;100.00;100439.23;105173;1257;73101;-51
2023/11/23 06:59:39;;;;;;;1.90;1.50;;;;;;;-4.30;100.00;100442.63;105978;1256;67110;-48
2023/11/23 07:02:07;;;;;;;2.80;1.70;;;;;;;-4.28;100.00;100438.81;105290;1260;72751;-53
2023/11/23 07:04:34;;;;;;;2.70;1.60;;;;;;;-4.26;100.00;100420.45;105306;1254;60677;-55
2023/11/23 07:07:04;;;;;;;4.00;2.10;;;;;;;-4.25;100.00;100404.86;105233;1259;60243;-54
2023/11/23 07:09:32;;;;;;;3.30;1.60;;;;;;;-4.24;100.00;100401.21;105892;1257;71725;-54
2023/11/23 07:12:00;;;;;;;3.60;1.90;;;;;;;-4.22;100.00;100400.73;105644;1257;66133;-54
2023/11/23 07:14:27;;;;;;;3.60;1.80;;;;;;;-4.20;100.00;100393.94;105437;1256;75356;-54
2023/11/23 07:16:56;;;;;;;3.90;2.50;;;;;;;-4.19;100.00;100386.79;105425;1257;62413;-54
2023/11/23 07:19:24;;;;;;;3.20;2.20;;;;;;;-4.18;100.00;100381.89;108969;1254;58836;-52
2023/11/23 07:21:51;;;;;;;4.00;2.10;;;;;;;-4.17;100.00;100371.93;106683;1254;72425;-53
2023/11/23 07:24:19;;;;;;;4.00;2.40;;;;;;;-4.16;100.00;100363.88;105229;1260;67754;-53
2023/11/23 07:26:46;;;;;;;3.70;1.90;;;;;;;-4.12;100.00;100360.28;105756;1254;71428;-53
2023/11/23 07:29:13;;;;;;;4.20;2.20;;;;;;;-4.08;100.00;100357.20;105027;1254;59616;-53
2023/11/23 07:31:41;;;;;;;5.60;2.90;;;;;;;-4.04;100.00;100355.18;105192;1254;60257;-53
2023/11/23 07:34:11;;;;;;;5.10;3.30;;;;;;;-3.99;100.00;100339.33;105110;1254;74049;-54
2023/11/23 07:36:38;;;;;;;3.20;2.20;;;;;;;-3.93;100.00;100320.69;105040;1254;67494;-54
2023/11/23 07:39:08;;;;;;;6.40;3.00;;;;;;;-3.88;100.00;100314.29;104923;1257;72733;-53
2023/11/23 07:41:36;;;;;;;4.90;2.50;;;;;;;-3.83;100.00;100315.08;105518;1259;60438;-53
2023/11/23 07:44:04;;;;;;;4.20;2.40;;;;;;;-3.79;100.00;100306.73;105330;1258;60422;-54
2023/11/23 07:46:32;;;;;;;6.80;2.80;;;;;;;-3.76;100.00;100296.81;105857;1253;73042;-53
2023/11/23 07:49:00;;;;;;;3.90;1.60;;;;;;;-3.73;100.00;100285.44;105291;1253;64702;-54
2023/11/23 07:51:27;;;;;;;3.60;2.80;;;;;;;-3.71;100.00;100282.32;105303;1257;73246;-52
2023/11/23 07:53:55;;;;;;;5.60;2.90;;;;;;;-3.69;100.00;100277.80;105442;1258;61562;-53
2023/11/23 07:56:22;;;;;;;4.20;2.00;;;;;;;-3.67;100.00;100274.34;105484;1258;60713;-53
2023/11/23 07:58:50;;;;;;;3.40;1.60;;;;;;;-3.65;100.00;100266.80;105294;1260;73725;-54
2023/11/23 08:01:17;;;;;;;5.30;3.10;;;;;;;-3.63;100.00;100254.55;105364;1259;65791;-54
2023/11/23 08:03:44;;;;;;;3.50;2.30;;;;;;;-3.62;100.00;100238.11;105428;1257;72702;-53
2023/11/23 08:06:12;;;;;;;4.70;3.20;;;;;;;-3.59;100.00;100230.27;105271;1267;60665;-53
2023/11/23 08:08:39;;;;;;;6.50;2.70;;;;;;;-3.57;100.00;100228.89;105388;1257;60470;-53
2023/11/23 08:11:08;;;;;;;10.20;3.50;;;;;;;-3.53;100.00;100236.15;105205;1261;72656;-53
2023/11/23 08:13:36;;;;;;;6.80;3.00;;;;;;;-3.51;100.00;100226.72;108776;1254;67289;-54
2023/11/23 08:16:04;;;;;;;6.40;3.90;;;;;;;-3.48;100.00;100221.13;108927;1253;72701;-54
2023/11/23 08:18:31;;;;;;;5.20;2.70;;;;;;;-3.45;100.00;100229.77;106387;1257;60569;-54
2023/11/23 08:21:13;;;;;;;8.40;2.60;;;;;;;-3.44;100.00;100228.58;105430;1259;60510;-54
2023/11/23 08:23:41;;;;;;;5.30;2.70;;;;;;;-3.42;100.00;100217.54;105210;1258;72168;-53
2023/11/23 08:26:10;;;;;;;5.20;2.00;;;;;;;-3.38;100.00;100212.49;109152;1253;65248;-54
2023/11/23 08:28:38;;;;;;;6.90;2.10;;;;;;;-3.33;100.00;100209.78;109050;1253;71863;-54
2023/11/23 08:31:06;;;;;;;3.10;1.60;;;;;;;-3.29;100.00;100205.09;109016;1254;60104;-54
2023/11/23 08:33:34;;;;;;;3.90;2.00;;;;;;;-3.24;100.00;100200.43;109101;1253;61578;-54
2023/11/23 08:36:01;;;;;;;2.90;2.40;;;;;;;-3.19;100.00;100198.74;109011;1253;73135;-54
2023/11/23 08:38:29;;;;;;;5.00;2.50;;;;;;;-3.14;100.00;100197.59;108949;1254;67798;-54
2023/11/23 08:40:56;;;;;;;4.80;1.80;;;;;;;-3.09;100.00;100199.24;109141;1254;71605;-54
2023/11/23 08:43:24;;;;;;;3.60;2.20;;;;;;;-3.04;100.00;100195.78;108973;1254;59307;-54
2023/11/23 08:45:51;;;;;;;3.20;2.00;;;;;;;-2.99;100.00;100177.61;108936;1253;60124;-54
2023/11/23 08:48:22;;;;;;;2.90;2.10;;;;;;;-2.95;100.00;100177.11;108967;1253;73914;-54
2023/11/23 08:50:49;;;;;;;4.60;2.40;;;;;;;-2.89;100.00;100174.56;109088;1253;67636;-54
2023/11/23 08:53:17;;;;;;;6.90;3.00;;;;;;;-2.84;100.00;100164.45;108946;1254;71450;-54
2023/11/23 08:55:48;;;;;;;7.20;4.90;;;;;;;-2.77;100.00;100161.35;108989;1254;58865;-54
2023/11/23 08:58:15;;;;;;;5.30;2.80;;;;;;;-2.74;100.00;100147.35;109067;1253;61460;-55
2023/11/23 09:00:43;;;;;;;5.70;3.80;;;;;;;-2.73;100.00;100141.20;109068;1253;73417;-54
2023/11/23 09:03:10;;;;;;;4.50;3.00;;;;;;;-2.69;100.00;100137.38;109055;1254;66769;-55
2023/11/23 09:05:38;;;;;;;5.20;2.30;;;;;;;-2.63;100.00;100135.51;109080;1254;73233;-54
2023/11/23 09:08:08;;;;;;;3.30;2.20;;;;;;;-2.59;100.00;100143.29;108962;1257;59996;-55
2023/11/23 09:10:36;;;;;;;3.70;2.00;;;;;;;-2.53;100.00;100145.80;109012;1253;59130;-54
2023/11/23 09:13:05;;;;;;;3.20;1.80;;;;;;;-2.48;100.00;100130.40;107596;1254;73838;-54
2023/11/23 09:15:32;;;;;;;1.70;1.10;;;;;;;-2.45;100.00;100107.04;105435;1257;65932;-54
2023/11/23 09:18:00;;;;;;;1.60;1.40;;;;;;;-2.44;100.00;100109.52;105368;1256;71288;-54
2023/11/23 09:20:28;;;;;;;2.00;1.30;;;;;;;-2.43;100.00;100095.48;105234;1257;60557;-53
2023/11/23 09:22:55;;;;;;;1.60;1.00;;;;;;;-2.46;100.00;100096.33;105325;1253;61025;-53
2023/11/23 09:25:24;;;;;;;1.70;1.20;;;;;;;-2.48;100.00;100093.33;105330;1254;73808;-53
2023/11/23 09:27:51;;;;;;;2.50;1.30;;;;;;;-2.51;100.00;100088.55;105322;1257;65771;-53
2023/11/23 09:30:19;;;;;;;1.90;1.30;;;;;;;-2.57;100.00;100079.52;105171;1254;70796;-53
2023/11/23 09:32:46;;;;;;;1.80;1.10;;;;;;;-2.62;100.00;100076.66;105201;1254;60884;-54
2023/11/23 09:35:14;;;;;;;1.80;1.20;;;;;;;-2.65;100.00;100081.04;105342;1254;60490;-54
2023/11/23 09:37:41;;;;;;;2.00;1.30;;;;;;;-2.70;100.00;100087.66;105320;1256;72833;-54
2023/11/23 09:40:11;;;;;;;1.70;1.20;;;;;;;-2.77;100.00;100079.68;105390;1252;65771;-54
2023/11/23 09:42:38;;;;;;;2.30;1.40;;;;;;;-2.80;100.00;100058.03;105916;1254;72728;-54
2023/11/23 09:45:07;;;;;;;2.40;1.90;;;;;;;-2.85;100.00;100033.40;105742;1258;60754;-54
2023/11/23 09:47:35;;;;;;;2.90;2.40;;;;;;;-2.90;100.00;100018.42;105478;1259;60454;-54
2023/11/23 09:50:03;;;;;;;3.20;1.90;;;;;;;-2.95;100.00;100002.73;105371;1253;74088;-54
2023/11/23 09:52:31;;;;;;;2.70;1.30;;;;;;;-3.00;100.00;99984.63;105220;1260;66977;-54
2023/11/23 09:54:59;;;;;;;2.40;1.50;;;;;;;-3.04;100.00;99978.79;105353;1258;72737;-54
2023/11/23 09:57:27;;;;;;;1.70;1.10;;;;;;;-3.04;100.00;99965.27;105324;1260;60486;-54
2023/11/23 09:59:55;;;;;;;1.90;1.20;;;;;;;-3.03;100.00;99951.92;105214;1259;60509;-53
2023/11/23 10:02:26;;;;;;;2.60;1.50;;;;;;;-3.03;100.00;99942.98;107641;1256;72607;-53
2023/11/23 10:04:57;;;;;;;2.70;1.40;;;;;;;-3.01;100.00;99926.50;105748;1259;65524;-53
2023/11/23 10:07:26;;;;;;;2.20;1.30;;;;;;;-2.99;100.00;99914.58;105304;1254;72744;-54
2023/11/23 10:09:54;;;;;;;2.10;1.70;;;;;;;-2.98;100.00;99907.21;108981;1253;60053;-54
2023/11/23 10:12:23;;;;;;;4.10;1.60;;;;;;;-3.00;100.00;99896.66;108931;1253;59375;-54
2023/11/23 10:14:52;;;;;;;3.10;1.20;;;;;;;-3.03;100.00;99896.45;106141;1256;73924;-54
2023/11/23 10:17:22;;;;;;;1.50;1.30;;;;;;;-3.08;100.00;99889.92;106610;1253;69115;-54
2023/11/23 10:19:49;;;;;;;2.70;1.30;;;;;;;-3.13;100.00;99891.09;105955;1257;72782;-54
2023/11/23 10:22:17;;;;;;;1.10;1.00;;;;;;;-3.17;100.00;99885.47;105345;1255;61132;-54
2023/11/23 10:24:48;;;;;;;1.70;1.10;;;;;;;-3.16;100.00;99874.77;105231;1253;60531;-55
2023/11/23 10:27:16;;;;;;;1.20;0.90;;;;;;;-3.15;100.00;99865.80;104762;1257;73897;-54
2023/11/23 10:29:45;;;;;;;3.10;0.80;;;;;;;-3.14;100.00;99866.33;105579;1254;68091;-54
2023/11/23 10:32:15;;;;;;;1.70;0.90;;;;;;;-3.13;100.00;99858.61;105330;1256;72393;-54
2023/11/23 10:34:42;;;;;;;1.40;0.90;;;;;;;-3.16;100.00;99846.33;105418;1254;60662;-55
2023/11/23 10:37:13;;;;;;;2.30;1.10;;;;;;;-3.16;100.00;99835.80;105341;1253;60367;-54
2023/11/23 10:39:40;;;;;;;2.40;1.00;;;;;;;-3.16;100.00;99828.08;106370;1253;73320;-54
2023/11/23 10:42:08;;;;;;;1.30;0.90;;;;;;;-3.16;100.00;99810.86;105461;1255;65643;-54
2023/11/23 10:44:35;;;;;;;1.50;1.20;;;;;;;-3.18;100.00;99807.34;106737;1254;70348;-54
2023/11/23 10:47:03;;;;;;;1.50;1.00;;;;;;;-3.21;100.00;99794.67;105327;1254;60440;-53
2023/11/23 10:49:33;;;;;;;2.00;1.20;;;;;;;-3.27;100.00;99789.36;105967;1254;60641;-53
2023/11/23 10:52:03;;;;;;;2.50;1.90;;;;;;;-3.30;100.00;99784.60;105753;1254;73923;-54
2023/11/23 10:54:30;;;;;;;2.20;1.40;;;;;;;-3.36;100.00;99770.17;105272;1259;67317;-54
2023/11/23 10:56:58;;;;;;;4.70;2.00;;;;;;;-3.41;100.00;99749.43;105452;1256;72715;-54
2023/11/23 10:59:26;;;;;;;2.60;1.60;;;;;;;-3.44;100.00;99751.16;105239;1260;60797;-54
2023/11/23 11:01:54;;;;;;;2.60;1.70;;;;;;;-3.48;100.00;99755.33;105437;1254;60673;-54
2023/11/23 11:04:22;;;;;;;3.10;1.90;;;;;;;-3.50;100.00;99752.88;105710;1253;72617;-54
2023/11/23 11:06:52;;;;;;;2.30;1.70;;;;;;;-3.51;100.00;99750.77;105600;1253;66926;-55
2023/11/23 11:09:24;;;;;;;2.70;2.00;;;;;;;-3.50;100.00;99725.52;105401;1253;72797;-54
2023/11/23 11:11:56;;;;;;;1.70;1.30;;;;;;;-3.48;100.00;99713.23;105426;1253;61837;-55
2023/11/23 11:14:36;;;;;;;3.20;2.20;;;;;;;-3.46;100.00;99704.13;108794;1253;60903;-55